createdAt,value
2022-10-11T00:00:53.970Z,100237.13
2022-10-11T00:02:55.642Z,100264.09
2022-10-11T00:04:57.168Z,100271.66
2022-10-11T00:06:58.755Z,100280.56
2022-10-11T00:09:00.337Z,100277.50
2022-10-11T00:11:06.204Z,100333.16
2022-10-11T00:13:08.330Z,100270.06
2022-10-11T00:15:13.478Z,100296.25
2022-10-11T00:17:15.028Z,100303.69
2022-10-11T00:19:16.673Z,100269.69
2022-10-11T00:21:18.316Z,100253.50
2022-10-11T00:23:19.882Z,100257.97
2022-10-11T00:25:21.527Z,100319.84
2022-10-11T00:27:23.068Z,100237.13
2022-10-11T00:29:24.626Z,100231.41
2022-10-11T00:31:26.185Z,100252.25
2022-10-11T00:33:27.844Z,100264.69
2022-10-11T00:35:29.410Z,100278.09
2022-10-11T00:37:31.840Z,100278.19
2022-10-11T00:39:33.439Z,100262.22
2022-10-11T00:41:35.016Z,100267.88
2022-10-11T00:43:36.565Z,100302.56
2022-10-11T00:45:38.067Z,100243.66
2022-10-11T00:47:40.972Z,100245.84
2022-10-11T00:49:45.704Z,100259.16
2022-10-11T00:51:55.322Z,100316.00
2022-10-11T00:53:57.049Z,100265.84
2022-10-11T00:56:08.794Z,100308.09
2022-10-11T00:58:11.486Z,100300.28
2022-10-11T01:00:14.734Z,100280.03
2022-10-11T01:02:17.551Z,100265.09
2022-10-11T01:04:19.148Z,100270.66
2022-10-11T01:06:20.834Z,100273.78
2022-10-11T01:08:23.337Z,100286.06
2022-10-11T01:10:25.978Z,100276.94
2022-10-11T01:12:30.150Z,100286.78
2022-10-11T01:14:47.596Z,100280.88
2022-10-11T01:17:02.216Z,100275.28
2022-10-11T01:19:34.615Z,100306.78
2022-10-11T01:21:52.002Z,100282.53
2022-10-11T01:24:08.532Z,100291.28
2022-10-11T01:26:31.801Z,100325.34
2022-10-11T01:28:39.193Z,100320.00
2022-10-11T01:30:42.209Z,100330.38
2022-10-11T01:32:52.463Z,100299.97
2022-10-11T01:35:15.987Z,100262.41
2022-10-11T01:37:29.403Z,100310.56
2022-10-11T01:39:36.749Z,100332.03
2022-10-11T01:41:56.051Z,100284.44
2022-10-11T01:44:02.387Z,100312.94
2022-10-11T01:46:06.120Z,100365.75
2022-10-11T01:48:11.494Z,100292.28
2022-10-11T01:50:43.542Z,100322.78
2022-10-11T01:52:45.898Z,100351.81
2022-10-11T01:55:09.684Z,100327.34
2022-10-11T01:57:20.484Z,100323.22
2022-10-11T01:59:34.340Z,100337.91
2022-10-11T02:01:42.370Z,100344.69
2022-10-11T02:03:52.454Z,100316.06
2022-10-11T02:06:09.658Z,100277.03
2022-10-11T02:08:29.982Z,100324.69
2022-10-11T02:10:54.431Z,100333.38
2022-10-11T02:12:59.541Z,100280.09
2022-10-11T02:15:03.458Z,100317.84
2022-10-11T02:17:12.168Z,100309.59
2022-10-11T02:19:18.709Z,100297.72
2022-10-11T02:21:23.515Z,100340.28
2022-10-11T02:23:39.167Z,100321.41
2022-10-11T02:25:40.785Z,100360.94
2022-10-11T02:27:46.733Z,100333.22
2022-10-11T02:29:50.834Z,100398.28
2022-10-11T02:31:54.290Z,100384.47
2022-10-11T02:34:09.734Z,100394.00
2022-10-11T02:36:19.730Z,100346.03
2022-10-11T02:38:25.158Z,100359.69
2022-10-11T02:40:32.398Z,100334.34
2022-10-11T02:42:39.509Z,100329.91
2022-10-11T02:44:53.413Z,100368.59
2022-10-11T02:46:55.641Z,100388.13
2022-10-11T02:48:59.687Z,100327.53
2022-10-11T02:51:03.234Z,100351.53
2022-10-11T02:53:04.951Z,100393.22
2022-10-11T02:55:07.616Z,100374.41
2022-10-11T02:57:09.302Z,100366.94
2022-10-11T02:59:10.931Z,100395.31
2022-10-11T03:01:13.728Z,100368.69
2022-10-11T03:03:15.791Z,100367.03
2022-10-11T03:05:17.571Z,100379.19
2022-10-11T03:07:19.107Z,100388.59
2022-10-11T03:09:20.666Z,100399.75
2022-10-11T03:11:22.227Z,100378.38
2022-10-11T03:13:24.138Z,100354.59
2022-10-11T03:15:25.702Z,100354.13
2022-10-11T03:17:37.642Z,100323.75
2022-10-11T03:19:39.355Z,100411.72
2022-10-11T03:21:40.952Z,100413.88
2022-10-11T03:23:42.714Z,100376.75
2022-10-11T03:25:45.626Z,100385.75
2022-10-11T03:27:47.175Z,100358.16
2022-10-11T03:29:48.675Z,100403.53
2022-10-11T03:31:50.291Z,100327.84
2022-10-11T03:33:51.831Z,100354.78
2022-10-11T03:35:53.368Z,100365.28
2022-10-11T03:37:54.970Z,100422.22
2022-10-11T03:39:56.623Z,100424.63
2022-10-11T03:41:58.197Z,100385.88
2022-10-11T03:43:59.798Z,100390.16
2022-10-11T03:46:01.485Z,100430.09
2022-10-11T03:48:03.763Z,100428.78
2022-10-11T03:50:07.293Z,100431.72
2022-10-11T03:52:08.872Z,100397.31
2022-10-11T03:54:10.416Z,100407.81
2022-10-11T03:56:12.398Z,100445.41
2022-10-11T03:58:14.156Z,100429.09
2022-10-11T04:00:15.814Z,100393.00
2022-10-11T04:02:17.619Z,100425.16
2022-10-11T04:04:19.212Z,100411.13
2022-10-11T04:06:20.918Z,100369.78
2022-10-11T04:08:22.528Z,100415.91
2022-10-11T04:10:24.074Z,100439.25
2022-10-11T04:12:25.733Z,100417.56
2022-10-11T04:14:27.400Z,100433.13
2022-10-11T04:16:29.020Z,100422.94
2022-10-11T04:18:30.564Z,100379.16
2022-10-11T04:20:32.224Z,100443.50
2022-10-11T04:22:34.100Z,100396.06
2022-10-11T04:24:35.759Z,100423.44
2022-10-11T04:26:37.641Z,100404.56
2022-10-11T04:28:39.217Z,100425.81
2022-10-11T04:30:40.796Z,100451.81
2022-10-11T04:32:42.461Z,100357.06
2022-10-11T04:34:44.009Z,100411.13
2022-10-11T04:36:49.770Z,100444.41
2022-10-11T04:38:51.694Z,100435.56
2022-10-11T04:40:53.236Z,100453.44
2022-10-11T04:42:54.922Z,100480.44
2022-10-11T04:44:56.515Z,100475.09
2022-10-11T04:46:58.142Z,100434.28
2022-10-11T04:48:59.797Z,100401.47
2022-10-11T04:51:01.449Z,100489.66
2022-10-11T04:53:03.036Z,100496.34
2022-10-11T04:55:05.123Z,100487.69
2022-10-11T04:57:06.696Z,100453.97
2022-10-11T04:59:08.280Z,100504.44
2022-10-11T05:01:11.003Z,100495.66
2022-10-11T05:03:12.551Z,100443.19
2022-10-11T05:05:17.556Z,100484.63
2022-10-11T05:07:19.174Z,100488.75
2022-10-11T05:09:21.859Z,100457.31
2022-10-11T05:11:23.435Z,100477.69
2022-10-11T05:13:25.284Z,100445.69
2022-10-11T05:15:26.851Z,100471.97
2022-10-11T05:17:28.406Z,100515.97
2022-10-11T05:19:29.926Z,100488.47
2022-10-11T05:21:31.919Z,100512.38
2022-10-11T05:23:35.905Z,100494.16
2022-10-11T05:25:37.716Z,100533.88
2022-10-11T05:27:39.271Z,100561.16
2022-10-11T05:29:40.859Z,100509.84
2022-10-11T05:31:43.287Z,100497.94
2022-10-11T05:33:45.137Z,100510.06
2022-10-11T05:35:46.818Z,100532.72
2022-10-11T05:37:48.418Z,100560.19
2022-10-11T05:39:50.066Z,100501.84
2022-10-11T05:41:52.178Z,100545.44
2022-10-11T05:43:53.703Z,100564.53
2022-10-11T05:45:55.335Z,100555.84
2022-10-11T05:47:56.892Z,100538.88
2022-10-11T05:49:58.888Z,100535.53
2022-10-11T05:52:00.576Z,100511.69
2022-10-11T05:54:02.103Z,100584.72
2022-10-11T05:56:04.534Z,100585.78
2022-10-11T05:58:07.080Z,100593.03
2022-10-11T06:00:09.349Z,100560.38
2022-10-11T06:02:13.296Z,100535.56
2022-10-11T06:04:16.562Z,100538.63
2022-10-11T06:06:19.490Z,100583.69
2022-10-11T06:08:21.005Z,100592.81
2022-10-11T06:10:22.559Z,100571.00
2022-10-11T06:12:24.093Z,100601.56
2022-10-11T06:14:26.156Z,100596.38
2022-10-11T06:16:28.287Z,100586.19
2022-10-11T06:18:30.007Z,100605.00
2022-10-11T06:20:31.567Z,100617.97
2022-10-11T06:22:33.127Z,100595.88
2022-10-11T06:24:34.652Z,100582.13
2022-10-11T06:26:36.283Z,100591.53
2022-10-11T06:28:38.143Z,100589.91
2022-10-11T06:30:39.886Z,100571.38
2022-10-11T06:32:41.451Z,100587.69
2022-10-11T06:34:42.983Z,100600.84
2022-10-11T06:36:44.505Z,100559.94
2022-10-11T06:38:46.187Z,100599.63
2022-10-11T06:40:47.696Z,100585.47
2022-10-11T06:42:49.907Z,100632.84
2022-10-11T06:44:51.721Z,100617.59
2022-10-11T06:46:53.297Z,100642.94
2022-10-11T06:48:56.516Z,100644.56
2022-10-11T06:51:00.471Z,100651.31
2022-10-11T06:53:02.268Z,100629.41
2022-10-11T06:55:04.070Z,100659.75
2022-10-11T06:57:05.599Z,100644.34
2022-10-11T06:59:07.384Z,100606.38
2022-10-11T07:01:12.946Z,100645.84
2022-10-11T07:03:14.510Z,100633.84
2022-10-11T07:05:17.221Z,100595.81
2022-10-11T07:07:18.787Z,100648.81
2022-10-11T07:09:20.324Z,100593.03
2022-10-11T07:11:25.369Z,100589.22
2022-10-11T07:13:26.924Z,100617.59
2022-10-11T07:15:28.439Z,100661.59
2022-10-11T07:17:30.074Z,100627.19
2022-10-11T07:19:31.728Z,100654.59
2022-10-11T07:21:34.564Z,100611.25
2022-10-11T07:23:37.122Z,100637.66
2022-10-11T07:25:38.835Z,100693.84
2022-10-11T07:27:40.413Z,100681.91
2022-10-11T07:29:42.003Z,100684.09
2022-10-11T07:31:44.134Z,100643.16
2022-10-11T07:33:46.144Z,100683.44
2022-10-11T07:35:48.985Z,100636.72
2022-10-11T07:37:50.611Z,100667.66
2022-10-11T07:39:52.171Z,100645.63
2022-10-11T07:41:53.787Z,100690.13
2022-10-11T07:43:55.347Z,100674.94
2022-10-11T07:46:00.526Z,100665.94
2022-10-11T07:48:02.039Z,100664.97
2022-10-11T07:50:04.238Z,100713.63
2022-10-11T07:52:05.794Z,100729.75
2022-10-11T07:54:07.693Z,100720.78
2022-10-11T07:56:12.535Z,100669.47
2022-10-11T07:58:14.138Z,100670.00
2022-10-11T08:00:15.948Z,100718.69
2022-10-11T08:02:17.537Z,100734.72
2022-10-11T08:04:19.107Z,100651.81
2022-10-11T08:06:23.795Z,100705.81
2022-10-11T08:08:25.395Z,100737.34
2022-10-11T08:10:27.258Z,100703.97
2022-10-11T08:12:28.809Z,100676.59
2022-10-11T08:14:30.796Z,100700.97
2022-10-11T08:16:32.395Z,100669.56
2022-10-11T08:18:33.950Z,100688.44
2022-10-11T08:20:38.745Z,100721.25
2022-10-11T08:22:40.444Z,100678.19
2022-10-11T08:24:42.028Z,100715.91
2022-10-11T08:26:43.628Z,100691.25
2022-10-11T08:28:45.332Z,100711.53
2022-10-11T08:30:48.488Z,100682.94
2022-10-11T08:32:50.045Z,100753.06
2022-10-11T08:34:51.698Z,100746.34
2022-10-11T08:36:53.301Z,100671.16
2022-10-11T08:38:54.908Z,100747.19
2022-10-11T08:40:59.500Z,100693.41
2022-10-11T08:43:05.425Z,100692.50
2022-10-11T08:45:16.887Z,100653.59
2022-10-11T08:47:33.698Z,100759.41
2022-10-11T08:49:36.074Z,100679.78
2022-10-11T08:51:45.372Z,100662.13
2022-10-11T08:54:17.312Z,100687.63
2022-10-11T08:56:20.472Z,100736.66
2022-10-11T08:58:30.094Z,100655.44
2022-10-11T09:00:35.454Z,100678.59
2022-10-11T09:03:07.374Z,100672.34
2022-10-11T09:05:15.448Z,100732.41
2022-10-11T09:07:38.568Z,100734.78
2022-10-11T09:09:58.947Z,100665.56
2022-10-11T09:12:32.938Z,100699.81
2022-10-11T09:14:44.663Z,100714.84
2022-10-11T09:17:27.885Z,100705.06
2022-10-11T09:19:32.401Z,100727.13
2022-10-11T09:21:36.998Z,100638.66
2022-10-11T09:23:44.571Z,100667.78
2022-10-11T09:25:54.592Z,100654.06
2022-10-11T09:28:18.022Z,100743.75
2022-10-11T09:30:20.179Z,100692.69
2022-10-11T09:32:23.022Z,100653.06
2022-10-11T09:34:27.342Z,100698.56
2022-10-11T09:36:34.082Z,100665.94
2022-10-11T09:38:43.867Z,100681.06
2022-10-11T09:41:09.871Z,100645.91
2022-10-11T09:43:12.183Z,100712.81
2022-10-11T09:45:20.844Z,100653.84
2022-10-11T09:47:25.879Z,100699.78
2022-10-11T09:50:26.454Z,100676.63
2022-10-11T09:52:28.088Z,100660.16
2022-10-11T09:54:41.429Z,100642.78
2022-10-11T09:56:45.413Z,100676.44
2022-10-11T09:58:47.157Z,100667.72
2022-10-11T10:01:07.407Z,100720.19
2022-10-11T10:03:27.874Z,100739.38
2022-10-11T10:05:35.579Z,100662.09
2022-10-11T10:07:40.917Z,100693.66
2022-10-11T10:09:42.485Z,100728.78
2022-10-11T10:11:44.115Z,100709.16
2022-10-11T10:13:51.648Z,100624.25
2022-10-11T10:15:56.158Z,100648.19
2022-10-11T10:17:58.331Z,100654.81
2022-10-11T10:20:00.701Z,100685.00
2022-10-11T10:22:02.354Z,100699.25
2022-10-11T10:24:19.808Z,100650.47
2022-10-11T10:26:24.304Z,100689.13
2022-10-11T10:28:27.473Z,100704.06
2022-10-11T10:30:35.205Z,100686.03
2022-10-11T10:32:59.911Z,100701.94
2022-10-11T10:35:29.319Z,100713.50
2022-10-11T10:38:14.160Z,100627.97
2022-10-11T10:40:25.398Z,100653.81
2022-10-11T10:42:27.970Z,100642.97
2022-10-11T10:44:29.580Z,100661.91
2022-10-11T10:46:46.208Z,100652.94
2022-10-11T10:52:06.023Z,100654.00
2022-10-11T10:54:34.683Z,100664.41
2022-10-11T10:56:55.739Z,100652.31
2022-10-11T10:59:35.246Z,100633.75
2022-10-11T11:03:34.224Z,100639.84
2022-10-11T11:05:56.033Z,100583.50
2022-10-11T11:08:39.422Z,100611.75
2022-10-11T11:10:59.303Z,100611.22
2022-10-11T11:13:16.087Z,100559.97
2022-10-11T11:15:43.423Z,100642.41
2022-10-11T11:18:15.556Z,100607.34
2022-10-11T11:20:21.560Z,100576.78
2022-10-11T11:22:23.134Z,100579.03
2022-10-11T11:24:39.582Z,100663.38
2022-10-11T11:27:18.941Z,100603.41
2022-10-11T11:29:44.767Z,100650.72
2022-10-11T11:32:15.690Z,100597.41
2022-10-11T11:34:25.594Z,100637.06
2022-10-11T11:36:33.179Z,100592.44
2022-10-11T11:38:54.309Z,100589.09
2022-10-11T11:40:59.253Z,100584.91
2022-10-11T11:43:15.547Z,100625.72
2022-10-11T11:45:23.648Z,100569.50
2022-10-11T11:47:34.118Z,100626.50
2022-10-11T11:51:50.591Z,100602.00
2022-10-11T11:54:10.756Z,100630.00
2022-10-11T11:56:18.054Z,100640.38
2022-10-11T11:58:37.882Z,100576.59
2022-10-11T12:00:55.342Z,100623.41
2022-10-11T12:03:28.095Z,100594.94
2022-10-11T12:05:33.472Z,100640.72
2022-10-11T12:07:58.680Z,100548.66
2022-10-11T12:10:37.311Z,100601.97
2022-10-11T12:12:39.346Z,100613.34
2022-10-11T12:14:41.878Z,100559.34
2022-10-11T12:17:10.402Z,100551.38
2022-10-11T12:19:14.368Z,100573.88
2022-10-11T12:21:20.728Z,100592.44
2022-10-11T12:23:31.263Z,100594.50
2022-10-11T12:25:39.898Z,100585.75
2022-10-11T12:27:50.604Z,100614.19
2022-10-11T12:29:52.219Z,100577.69
2022-10-11T12:32:00.130Z,100606.75
2022-10-11T12:34:01.623Z,100570.78
2022-10-11T12:36:38.511Z,100517.13
2022-10-11T12:38:41.267Z,100606.50
2022-10-11T12:40:47.100Z,100552.25
2022-10-11T12:43:16.732Z,100532.84
2022-10-11T12:45:18.279Z,100584.94
2022-10-11T12:47:40.968Z,100603.19
2022-10-11T12:50:06.833Z,100528.28
2022-10-11T12:52:17.864Z,100602.78
2022-10-11T12:55:00.130Z,100584.97
2022-10-11T12:57:20.304Z,100563.09
2022-10-11T12:59:23.725Z,100547.31
2022-10-11T13:01:36.194Z,100507.25
2022-10-11T13:03:45.013Z,100569.16
2022-10-11T13:05:52.387Z,100551.44
2022-10-11T13:08:02.711Z,100536.66
2022-10-11T13:10:05.789Z,100496.09
2022-10-11T13:12:13.675Z,100504.00
2022-10-11T13:14:22.928Z,100513.34
2022-10-11T13:16:41.754Z,100527.09
2022-10-11T13:18:45.178Z,100488.94
2022-10-11T13:20:47.243Z,100528.31
2022-10-11T13:22:53.129Z,100513.69
2022-10-11T13:24:58.029Z,100483.84
2022-10-11T13:26:59.719Z,100567.66
2022-10-11T13:29:01.592Z,100529.16
2022-10-11T13:31:04.402Z,100496.78
2022-10-11T13:33:11.758Z,100514.09
2022-10-11T13:35:34.359Z,100579.06
2022-10-11T13:37:44.635Z,100505.38
2022-10-11T13:39:47.280Z,100477.78
2022-10-11T13:41:48.924Z,100519.66
2022-10-11T13:43:51.420Z,100539.75
2022-10-11T13:45:54.943Z,100539.72
2022-10-11T13:47:56.921Z,100481.31
2022-10-11T13:50:10.968Z,100462.44
2022-10-11T13:52:18.514Z,100521.00
2022-10-11T13:54:20.174Z,100552.91
2022-10-11T13:56:21.769Z,100482.34
2022-10-11T13:58:26.123Z,100503.81
2022-10-11T14:00:37.338Z,100476.25
2022-10-11T14:02:39.342Z,100487.19
2022-10-11T14:04:41.633Z,100470.41
2022-10-11T14:06:54.348Z,100477.56
2022-10-11T14:08:58.550Z,100519.00
2022-10-11T14:11:06.091Z,100482.75
2022-10-11T14:13:34.195Z,100566.66
2022-10-11T14:15:38.156Z,100529.13
2022-10-11T14:17:45.208Z,100559.34
2022-10-11T14:20:07.368Z,100555.81
2022-10-11T14:22:16.932Z,100503.66
2022-10-11T14:24:19.237Z,100497.72
2022-10-11T14:26:22.740Z,100483.19
2022-10-11T14:28:24.337Z,100461.75
2022-10-11T14:30:27.660Z,100474.63
2022-10-11T14:32:33.265Z,100446.84
2022-10-11T14:34:36.555Z,100495.06
2022-10-11T14:36:38.063Z,100534.69
2022-10-11T14:38:39.665Z,100543.41
2022-10-11T14:40:41.259Z,100494.00
2022-10-11T14:42:42.791Z,100493.50
2022-10-11T14:44:44.688Z,100522.75
2022-10-11T14:46:48.072Z,100539.16
2022-10-11T14:48:55.433Z,100483.38
2022-10-11T14:51:02.904Z,100493.88
2022-10-11T14:53:05.983Z,100511.13
2022-10-11T14:55:07.758Z,100439.59
2022-10-11T14:57:11.777Z,100442.53
2022-10-11T14:59:16.373Z,100521.53
2022-10-11T15:01:17.985Z,100479.91
2022-10-11T15:03:19.606Z,100539.03
2022-10-11T15:05:22.977Z,100439.13
2022-10-11T15:07:24.485Z,100503.19
2022-10-11T15:09:26.124Z,100502.78
2022-10-11T15:11:27.699Z,100510.81
2022-10-11T15:13:29.234Z,100519.06
2022-10-11T15:15:35.208Z,100528.47
2022-10-11T15:17:37.093Z,100517.38
2022-10-11T15:19:38.618Z,100525.03
2022-10-11T15:21:40.173Z,100493.66
2022-10-11T15:23:41.832Z,100498.38
2022-10-11T15:25:43.368Z,100471.69
2022-10-11T15:27:45.006Z,100479.47
2022-10-11T15:29:47.127Z,100499.59
2022-10-11T15:31:49.491Z,100431.84
2022-10-11T15:33:51.227Z,100500.44
2022-10-11T15:35:53.008Z,100477.25
2022-10-11T15:37:58.442Z,100524.41
2022-10-11T15:40:00.065Z,100470.03
2022-10-11T15:42:01.689Z,100522.56
2022-10-11T15:44:03.211Z,100484.94
2022-10-11T15:46:05.416Z,100540.53
2022-10-11T15:48:07.464Z,100510.09
2022-10-11T15:50:23.394Z,100481.91
2022-10-11T15:52:24.968Z,100506.72
2022-10-11T15:54:26.545Z,100459.19
2022-10-11T15:56:32.927Z,100525.31
2022-10-11T15:58:38.617Z,100518.50
2022-10-11T16:00:40.427Z,100525.03
2022-10-11T16:02:41.950Z,100517.09
2022-10-11T16:04:44.571Z,100532.72
2022-10-11T16:06:46.188Z,100542.53
2022-10-11T16:08:48.086Z,100547.66
2022-10-11T16:10:50.613Z,100553.69
2022-10-11T16:12:52.151Z,100513.25
2022-10-11T16:14:53.694Z,100496.81
2022-10-11T16:16:55.309Z,100579.50
2022-10-11T16:18:56.823Z,100562.19
2022-10-11T16:20:58.490Z,100539.72
2022-10-11T16:23:00.529Z,100559.47
2022-10-11T16:25:04.007Z,100541.81
2022-10-11T16:27:05.779Z,100569.25
2022-10-11T16:29:07.324Z,100556.31
2022-10-11T16:31:11.244Z,100566.16
2022-10-11T16:33:12.929Z,100536.97
2022-10-11T16:35:16.372Z,100566.50
2022-10-11T16:37:18.164Z,100582.81
2022-10-11T16:39:20.061Z,100544.78
2022-10-11T16:41:21.642Z,100558.19
2022-10-11T16:43:23.165Z,100581.19
2022-10-11T16:45:24.701Z,100563.44
2022-10-11T16:47:26.403Z,100586.91
2022-10-11T16:49:28.827Z,100559.75
2022-10-11T16:51:30.464Z,100542.19
2022-10-11T16:53:34.347Z,100588.28
2022-10-11T16:55:39.532Z,100564.53
2022-10-11T16:57:41.051Z,100556.19
2022-10-11T16:59:42.605Z,100546.16
2022-10-11T17:01:45.225Z,100589.47
2022-10-11T17:03:46.862Z,100558.66
2022-10-11T17:05:48.437Z,100563.22
2022-10-11T17:07:49.978Z,100578.03
2022-10-11T17:09:51.516Z,100606.72
2022-10-11T17:11:53.142Z,100544.47
2022-10-11T17:13:54.679Z,100582.22
2022-10-11T17:15:56.204Z,100556.31
2022-10-11T17:17:58.104Z,100598.91
2022-10-11T17:19:59.828Z,100547.16
2022-10-11T17:22:01.348Z,100591.34
2022-10-11T17:24:03.674Z,100610.88
2022-10-11T17:26:10.990Z,100600.72
2022-10-11T17:28:13.216Z,100578.66
2022-10-11T17:30:15.260Z,100578.44
2022-10-11T17:32:16.846Z,100569.34
2022-10-11T17:34:18.381Z,100564.31
2022-10-11T17:36:27.923Z,100544.16
2022-10-11T17:38:29.677Z,100573.50
2022-10-11T17:40:31.314Z,100558.84
2022-10-11T17:42:32.975Z,100539.38
2022-10-11T17:44:35.792Z,100551.88
2022-10-11T17:46:38.113Z,100538.97
2022-10-11T17:48:39.930Z,100593.22
2022-10-11T17:50:44.848Z,100575.94
2022-10-11T17:52:48.995Z,100549.16
2022-10-11T17:54:50.617Z,100573.97
2022-10-11T17:56:52.378Z,100537.22
2022-10-11T17:58:56.464Z,100539.97
2022-10-11T18:01:02.039Z,100573.28
2022-10-11T18:03:04.093Z,100588.22
2022-10-11T18:05:07.256Z,100549.56
2022-10-11T18:07:08.861Z,100568.41
2022-10-11T18:09:11.804Z,100550.00
2022-10-11T18:11:17.194Z,100584.75
2022-10-11T18:13:19.001Z,100579.88
2022-10-11T18:15:20.614Z,100591.63
2022-10-11T18:17:24.684Z,100553.59
2022-10-11T18:19:26.374Z,100534.53
2022-10-11T18:21:34.023Z,100559.13
2022-10-11T18:23:38.267Z,100555.25
2022-10-11T18:25:39.897Z,100529.38
2022-10-11T18:27:41.578Z,100540.38
2022-10-11T18:29:43.584Z,100536.06
2022-10-11T18:31:45.284Z,100546.44
2022-10-11T18:33:47.338Z,100554.50
2022-10-11T18:35:48.953Z,100575.16
2022-10-11T18:37:51.057Z,100539.25
2022-10-11T18:39:52.715Z,100536.66
2022-10-11T18:41:54.411Z,100558.91
2022-10-11T18:43:57.541Z,100513.19
2022-10-11T18:46:07.089Z,100533.94
2022-10-11T18:48:09.103Z,100533.31
2022-10-11T18:50:10.751Z,100550.97
2022-10-11T18:52:12.537Z,100555.28
2022-10-11T18:54:18.326Z,100519.47
2022-10-11T18:56:24.728Z,100537.91
2022-10-11T18:58:26.728Z,100567.25
2022-10-11T19:00:40.635Z,100553.22
2022-10-11T19:02:42.946Z,100576.91
2022-10-11T19:04:44.675Z,100554.31
2022-10-11T19:06:51.620Z,100573.88
2022-10-11T19:09:24.507Z,100583.50
2022-10-11T19:11:26.422Z,100516.69
2022-10-11T19:13:27.931Z,100567.41
2022-10-11T19:15:29.517Z,100547.75
2022-10-11T19:17:31.118Z,100545.75
2022-10-11T19:19:33.216Z,100528.19
2022-10-11T19:21:35.176Z,100543.63
2022-10-11T19:23:39.613Z,100529.50
2022-10-11T19:25:41.157Z,100539.66
2022-10-11T19:27:42.662Z,100554.50
2022-10-11T19:29:44.326Z,100543.63
2022-10-11T19:31:52.030Z,100565.53
2022-10-11T19:33:54.064Z,100560.06
2022-10-11T19:35:56.658Z,100527.19
2022-10-11T19:37:58.170Z,100545.94
2022-10-11T19:39:59.734Z,100515.88
2022-10-11T19:42:01.678Z,100500.03
2022-10-11T19:44:03.416Z,100489.91
2022-10-11T19:46:08.342Z,100463.53
2022-10-11T19:48:11.492Z,100504.00
2022-10-11T19:50:13.015Z,100524.13
2022-10-11T19:52:14.547Z,100531.69
2022-10-11T19:54:16.493Z,100535.06
2022-10-11T19:56:18.768Z,100539.69
2022-10-11T19:58:20.333Z,100517.16
2022-10-11T20:00:22.015Z,100493.81
2022-10-11T20:02:23.552Z,100475.38
2022-10-11T20:04:51.193Z,100468.75
2022-10-11T20:06:47.185Z,100484.50
2022-10-11T20:09:10.350Z,100485.53
2022-10-11T20:11:13.698Z,100457.78
2022-10-11T20:13:15.240Z,100523.59
2022-10-11T20:15:16.777Z,100512.56
2022-10-11T20:17:18.346Z,100532.50
2022-10-11T20:19:21.494Z,100546.47
2022-10-11T20:21:27.750Z,100540.81
2022-10-11T20:23:30.350Z,100514.78
2022-10-11T20:25:31.981Z,100513.94
2022-10-11T20:27:33.891Z,100487.41
2022-10-11T20:29:35.679Z,100533.63
2022-10-11T20:31:41.802Z,100517.66
2022-10-11T20:33:43.395Z,100495.00
2022-10-11T20:35:45.006Z,100535.44
2022-10-11T20:37:46.552Z,100531.25
2022-10-11T20:39:48.073Z,100494.50
2022-10-11T20:41:49.632Z,100506.03
2022-10-11T20:43:54.607Z,100493.06
2022-10-11T20:46:00.063Z,100484.00
2022-10-11T20:48:01.573Z,100479.91
2022-10-11T20:50:03.511Z,100515.09
2022-10-11T20:52:05.074Z,100532.56
2022-10-11T20:54:06.629Z,100527.25
2022-10-11T20:56:10.595Z,100515.56
2022-10-11T20:58:12.214Z,100507.31
2022-10-11T21:00:14.247Z,100524.16
2022-10-11T21:02:18.983Z,100508.69
2022-10-11T21:04:20.855Z,100505.41
2022-10-11T21:06:22.486Z,100514.75
2022-10-11T21:08:24.050Z,100536.38
2022-10-11T21:10:25.752Z,100499.00
2022-10-11T21:12:27.252Z,100491.38
2022-10-11T21:14:28.917Z,100529.16
2022-10-11T21:16:30.471Z,100496.41
2022-10-11T21:18:32.002Z,100502.50
2022-10-11T21:20:38.252Z,100532.16
2022-10-11T21:22:39.791Z,100522.22
2022-10-11T21:24:41.323Z,100493.47
2022-10-11T21:26:42.911Z,100539.03
2022-10-11T21:28:45.614Z,100473.75
2022-10-11T21:30:47.226Z,100499.25
2022-10-11T21:32:48.876Z,100531.00
2022-10-11T21:34:50.445Z,100525.81
2022-10-11T21:36:52.058Z,100471.88
2022-10-11T21:38:54.954Z,100479.66
2022-10-11T21:40:56.508Z,100499.25
2022-10-11T21:42:58.048Z,100489.41
2022-10-11T21:44:59.648Z,100502.41
2022-10-11T21:47:07.112Z,100530.09
2022-10-11T21:49:09.448Z,100510.31
2022-10-11T21:51:34.555Z,100473.22
2022-10-11T21:53:36.073Z,100511.13
2022-10-11T21:55:37.588Z,100497.03
2022-10-11T21:57:41.850Z,100515.06
2022-10-11T21:59:43.387Z,100496.66
2022-10-11T22:01:44.973Z,100480.19
2022-10-11T22:03:46.779Z,100523.38
2022-10-11T22:05:48.649Z,100497.97
2022-10-11T22:07:50.166Z,100501.44
2022-10-11T22:09:51.727Z,100493.59
2022-10-11T22:11:53.500Z,100501.00
2022-10-11T22:13:55.076Z,100501.56
2022-10-11T22:15:56.849Z,100485.31
2022-10-11T22:17:58.383Z,100493.34
2022-10-11T22:19:59.928Z,100484.53
2022-10-11T22:22:01.676Z,100501.19
2022-10-11T22:24:03.449Z,100486.53
2022-10-11T22:26:06.607Z,100499.44
2022-10-11T22:28:08.710Z,100504.53
2022-10-11T22:30:10.635Z,100477.16
2022-10-11T22:32:12.174Z,100482.56
2022-10-11T22:34:13.790Z,100493.84
2022-10-11T22:36:19.300Z,100504.47
2022-10-11T22:38:20.956Z,100481.78
2022-10-11T22:40:22.521Z,100493.25
2022-10-11T22:42:27.522Z,100497.88
2022-10-11T22:44:29.411Z,100501.63
2022-10-11T22:46:30.972Z,100481.41
2022-10-11T22:48:32.571Z,100458.69
2022-10-11T22:50:34.127Z,100476.72
2022-10-11T22:52:35.685Z,100446.25
2022-10-11T22:54:37.206Z,100479.97
2022-10-11T22:56:38.873Z,100476.47
2022-10-11T22:58:40.432Z,100468.94
2022-10-11T23:00:42.112Z,100460.75
2022-10-11T23:02:43.819Z,100472.19
2022-10-11T23:04:45.344Z,100431.41
2022-10-11T23:06:47.082Z,100488.47
2022-10-11T23:08:48.681Z,100439.78
2022-10-11T23:10:50.307Z,100431.47
2022-10-11T23:12:51.853Z,100463.97
2022-10-11T23:14:53.525Z,100463.44
2022-10-11T23:16:55.049Z,100466.81
2022-10-11T23:18:56.597Z,100419.28
2022-10-11T23:21:00.496Z,100431.84
2022-10-11T23:23:02.024Z,100446.25
2022-10-11T23:25:04.396Z,100476.84
2022-10-11T23:27:06.426Z,100487.78
2022-10-11T23:29:08.042Z,100442.91
2022-10-11T23:31:18.367Z,100457.91
2022-10-11T23:33:19.952Z,100495.22
2022-10-11T23:35:21.617Z,100483.41
2022-10-11T23:37:23.257Z,100463.25
2022-10-11T23:39:24.792Z,100475.78
2022-10-11T23:41:28.913Z,100445.56
2022-10-11T23:43:30.449Z,100490.94
2022-10-11T23:45:31.958Z,100478.94
2022-10-11T23:47:33.524Z,100473.00
2022-10-11T23:49:35.043Z,100439.66
2022-10-11T23:51:36.682Z,100484.41
2022-10-11T23:53:38.283Z,100472.41
2022-10-11T23:55:40.601Z,100476.41
2022-10-11T23:57:42.132Z,100464.19